createdAt,value
2023-02-03T00:02:43.924Z,100905.06
2023-02-03T00:06:46.217Z,100922.78
2023-02-03T00:10:47.891Z,100941.84
2023-02-03T00:14:49.455Z,100931.91
2023-02-03T00:18:51.095Z,100934.69
2023-02-03T00:22:52.765Z,100920.31
2023-02-03T00:26:54.390Z,100903.81
2023-02-03T00:30:55.968Z,100881.25
2023-02-03T00:34:57.546Z,100886.28
2023-02-03T00:39:00.585Z,100878.69
2023-02-03T00:43:02.242Z,100887.16
2023-02-03T00:47:03.847Z,100896.66
2023-02-03T00:51:06.148Z,100904.66
2023-02-03T00:55:08.630Z,100907.22
2023-02-03T00:59:10.598Z,100905.53
2023-02-03T01:03:12.175Z,100899.63
2023-02-03T01:07:14.771Z,100889.91
2023-02-03T01:11:19.947Z,100879.34
2023-02-03T01:15:23.011Z,100853.97
2023-02-03T01:19:25.018Z,100835.81
2023-02-03T01:23:26.631Z,100836.00
2023-02-03T01:27:28.228Z,100840.44
2023-02-03T01:31:37.247Z,100862.81
2023-02-03T01:35:41.846Z,100860.72
2023-02-03T01:39:45.652Z,100859.06
2023-02-03T01:43:50.078Z,100840.91
2023-02-03T01:47:59.594Z,100846.16
2023-02-03T01:52:01.258Z,100841.31
2023-02-03T01:56:05.232Z,100835.41
2023-02-03T02:00:07.468Z,100822.72
2023-02-03T02:04:15.728Z,100824.63
2023-02-03T02:08:19.720Z,100808.78
2023-02-03T02:12:21.325Z,100801.59
2023-02-03T02:16:39.867Z,100794.00
2023-02-03T02:21:04.280Z,100811.09
2023-02-03T02:25:24.741Z,100797.81
2023-02-03T02:30:03.424Z,100784.09
2023-02-03T02:34:19.494Z,100801.41
2023-02-03T02:38:52.971Z,100824.03
2023-02-03T02:43:13.711Z,100839.00
2023-02-03T02:47:21.165Z,100845.16
2023-02-03T02:51:24.260Z,100839.00
2023-02-03T02:55:30.633Z,100841.97
2023-02-03T02:59:35.816Z,100851.06
2023-02-03T03:03:40.738Z,100847.25
2023-02-03T03:07:52.752Z,100845.56
2023-02-03T03:12:00.524Z,100865.19
2023-02-03T03:16:07.999Z,100860.97
2023-02-03T03:20:15.292Z,100861.81
2023-02-03T03:24:31.394Z,100841.94
2023-02-03T03:28:38.689Z,100843.84
2023-02-03T03:32:40.681Z,100847.00
2023-02-03T03:36:47.806Z,100840.69
2023-02-03T03:40:56.360Z,100847.41
2023-02-03T03:45:03.978Z,100848.66
2023-02-03T03:49:10.554Z,100838.09
2023-02-03T03:53:15.668Z,100812.16
2023-02-03T03:57:29.643Z,100809.19
2023-02-03T04:01:32.569Z,100823.09
2023-02-03T04:05:34.679Z,100832.81
2023-02-03T04:09:37.086Z,100827.53
2023-02-03T04:13:38.633Z,100812.75
2023-02-03T04:17:40.284Z,100812.97
2023-02-03T04:21:41.910Z,100806.19
2023-02-03T04:25:43.584Z,100800.72
2023-02-03T04:29:47.593Z,100798.63
2023-02-03T04:33:49.405Z,100811.91
2023-02-03T04:37:51.059Z,100825.47
2023-02-03T04:41:52.627Z,100816.38
2023-02-03T04:45:54.287Z,100795.91
2023-02-03T04:49:55.931Z,100778.38
2023-02-03T04:53:57.485Z,100788.09
2023-02-03T04:58:00.528Z,100806.25
2023-02-03T05:02:04.211Z,100826.34
2023-02-03T05:06:06.052Z,100835.19
2023-02-03T05:10:07.876Z,100835.84
2023-02-03T05:14:09.466Z,100840.06
2023-02-03T05:18:11.065Z,100839.44
2023-02-03T05:22:12.656Z,100827.19
2023-02-03T05:26:14.338Z,100821.28
2023-02-03T05:30:15.981Z,100814.91
2023-02-03T05:34:17.635Z,100787.22
2023-02-03T05:38:19.197Z,100794.84
2023-02-03T05:42:20.963Z,100802.44
2023-02-03T05:46:22.562Z,100804.75
2023-02-03T05:50:24.399Z,100789.31
2023-02-03T05:54:26.994Z,100781.31
2023-02-03T05:58:28.561Z,100763.56
2023-02-03T06:02:31.375Z,100764.81
2023-02-03T06:06:36.408Z,100782.75
2023-02-03T06:10:37.989Z,100773.88
2023-02-03T06:14:39.788Z,100780.66
2023-02-03T06:18:41.493Z,100773.69
2023-02-03T06:22:43.932Z,100765.69
2023-02-03T06:26:45.520Z,100765.47
2023-02-03T06:30:50.808Z,100785.50
2023-02-03T06:34:52.518Z,100783.63
2023-02-03T06:38:54.134Z,100782.16
2023-02-03T06:42:55.680Z,100775.41
2023-02-03T06:46:58.775Z,100784.06
2023-02-03T06:51:00.367Z,100784.25
2023-02-03T06:55:02.740Z,100790.63
2023-02-03T06:59:05.370Z,100792.72
2023-02-03T07:03:07.080Z,100815.97
2023-02-03T07:07:08.661Z,100826.31
2023-02-03T07:11:10.335Z,100826.09
2023-02-03T07:15:13.529Z,100825.03
2023-02-03T07:19:15.171Z,100821.22
2023-02-03T07:23:19.226Z,100825.28
2023-02-03T07:27:20.926Z,100839.84
2023-02-03T07:31:22.690Z,100837.50
2023-02-03T07:35:24.394Z,100837.75
2023-02-03T07:39:26.035Z,100823.38
2023-02-03T07:43:27.700Z,100798.91
2023-02-03T07:47:29.381Z,100808.81
2023-02-03T07:51:31.014Z,100809.88
2023-02-03T07:55:33.357Z,100818.53
2023-02-03T07:59:34.956Z,100820.22
2023-02-03T08:03:36.609Z,100816.00
2023-02-03T08:07:38.244Z,100825.28
2023-02-03T08:11:39.839Z,100850.22
2023-02-03T08:15:43.348Z,100836.06
2023-02-03T08:19:46.781Z,100834.22
2023-02-03T08:23:48.345Z,100824.47
2023-02-03T08:27:50.087Z,100820.06
2023-02-03T08:31:55.155Z,100821.53
2023-02-03T08:35:57.725Z,100817.31
2023-02-03T08:40:00.042Z,100815.19
2023-02-03T08:44:01.894Z,100813.06
2023-02-03T08:48:03.807Z,100818.13
2023-02-03T08:52:07.712Z,100813.06
2023-02-03T08:56:14.462Z,100805.88
2023-02-03T09:00:16.634Z,100814.75
2023-02-03T09:04:24.529Z,100815.81
2023-02-03T09:08:26.419Z,100830.81
2023-02-03T09:12:28.077Z,100833.53
2023-02-03T09:16:31.431Z,100834.56
2023-02-03T09:20:33.238Z,100827.59
2023-02-03T09:24:35.110Z,100823.53
2023-02-03T09:28:37.140Z,100822.28
2023-02-03T09:32:38.722Z,100808.75
2023-02-03T09:36:41.930Z,100817.59
2023-02-03T09:40:47.050Z,100817.81
2023-02-03T09:45:05.365Z,100825.44
2023-02-03T09:49:16.759Z,100835.38
2023-02-03T09:53:33.590Z,100831.13
2023-02-03T09:57:51.566Z,100830.28
2023-02-03T10:02:01.218Z,100815.88
2023-02-03T10:06:24.881Z,100820.09
2023-02-03T10:10:32.687Z,100816.91
2023-02-03T10:15:04.158Z,100816.91
2023-02-03T10:19:12.088Z,100827.91
2023-02-03T10:23:42.397Z,100818.19
2023-02-03T10:27:55.423Z,100793.63
2023-02-03T10:31:58.806Z,100785.97
2023-02-03T10:36:03.850Z,100773.50
2023-02-03T10:40:17.600Z,100770.53
2023-02-03T10:44:19.471Z,100781.50
2023-02-03T10:48:22.971Z,100787.41
2023-02-03T10:52:35.837Z,100789.97
2023-02-03T10:56:40.023Z,100779.78
2023-02-03T11:00:42.316Z,100766.06
2023-02-03T11:04:43.943Z,100776.34
2023-02-03T11:08:50.329Z,100775.31
2023-02-03T11:12:51.982Z,100786.13
2023-02-03T11:16:55.386Z,100798.22
2023-02-03T11:20:58.850Z,100803.91
2023-02-03T11:25:03.972Z,100790.84
2023-02-03T11:29:08.430Z,100770.47
2023-02-03T11:33:20.182Z,100756.06
2023-02-03T11:37:42.203Z,100754.91
2023-02-03T11:41:44.099Z,100753.06
2023-02-03T11:45:48.959Z,100740.50
2023-02-03T11:49:53.259Z,100741.63
2023-02-03T11:54:16.589Z,100723.81
2023-02-03T11:58:41.906Z,100721.63
2023-02-03T12:03:06.496Z,100731.69
2023-02-03T12:07:29.969Z,100746.31
2023-02-03T12:11:37.639Z,100733.09
2023-02-03T12:16:08.675Z,100732.75
2023-02-03T12:20:22.668Z,100727.50
2023-02-03T12:24:25.048Z,100713.72
2023-02-03T12:29:02.346Z,100724.09
2023-02-03T12:33:17.095Z,100706.34
2023-02-03T12:37:39.540Z,100694.72
2023-02-03T12:41:48.537Z,100679.38
2023-02-03T12:46:09.917Z,100664.25
2023-02-03T12:50:26.974Z,100667.69
2023-02-03T12:54:34.655Z,100669.63
2023-02-03T12:58:49.846Z,100673.56
2023-02-03T13:02:54.056Z,100687.72
2023-02-03T13:07:03.944Z,100692.03
2023-02-03T13:11:26.513Z,100688.75
2023-02-03T13:15:38.269Z,100697.84
2023-02-03T13:19:55.163Z,100695.53
2023-02-03T13:23:56.798Z,100679.84
2023-02-03T13:28:20.252Z,100675.97
2023-02-03T13:32:45.800Z,100657.59
2023-02-03T13:36:56.374Z,100661.41
2023-02-03T13:41:05.022Z,100658.72
2023-02-03T13:45:15.330Z,100655.34
2023-02-03T13:49:29.547Z,100657.91
2023-02-03T13:53:36.819Z,100669.38
2023-02-03T13:57:39.123Z,100656.03
2023-02-03T14:01:42.623Z,100661.50
2023-02-03T14:05:49.494Z,100664.16
2023-02-03T14:10:15.684Z,100665.28
2023-02-03T14:14:17.277Z,100668.00
2023-02-03T14:18:21.978Z,100660.78
2023-02-03T14:22:24.039Z,100663.97
2023-02-03T14:26:33.637Z,100667.56
2023-02-03T14:31:06.302Z,100657.28
2023-02-03T14:35:17.362Z,100658.50
2023-02-03T14:39:20.013Z,100663.63
2023-02-03T14:43:37.807Z,100677.06
2023-02-03T14:48:11.540Z,100694.25
2023-02-03T14:52:26.348Z,100695.97
2023-02-03T14:57:05.835Z,100699.63
2023-02-03T15:01:08.390Z,100698.91
2023-02-03T15:05:19.044Z,100680.38
2023-02-03T15:09:43.149Z,100669.44
2023-02-03T15:13:44.769Z,100667.16
2023-02-03T15:17:46.458Z,100683.44
2023-02-03T15:21:48.570Z,100683.25
2023-02-03T15:26:19.963Z,100706.72
2023-02-03T15:30:27.464Z,100712.44
2023-02-03T15:34:36.213Z,100715.63
2023-02-03T15:38:44.831Z,100722.78
2023-02-03T15:43:02.447Z,100730.59
2023-02-03T15:47:16.473Z,100727.81
2023-02-03T15:51:27.133Z,100738.19
2023-02-03T15:55:45.851Z,100739.66
2023-02-03T15:59:55.778Z,100712.13
2023-02-03T16:03:59.283Z,100720.19
2023-02-03T16:08:37.477Z,100734.97
2023-02-03T16:12:41.540Z,100746.66
2023-02-03T16:17:04.409Z,100746.88
2023-02-03T16:21:07.128Z,100740.09
2023-02-03T16:25:19.727Z,100746.66
2023-02-03T16:29:39.818Z,100751.94
2023-02-03T16:34:04.189Z,100769.06
2023-02-03T16:38:36.898Z,100759.34
2023-02-03T16:42:59.439Z,100768.47
2023-02-03T16:47:20.061Z,100757.94
2023-02-03T16:51:21.748Z,100773.00
2023-02-03T16:55:23.369Z,100768.97
2023-02-03T16:59:24.948Z,100776.41
2023-02-03T17:03:30.529Z,100784.44
2023-02-03T17:07:32.094Z,100784.25
2023-02-03T17:11:33.651Z,100773.25
2023-02-03T17:15:40.307Z,100773.66
2023-02-03T17:19:41.930Z,100784.66
2023-02-03T17:23:44.085Z,100781.25
2023-02-03T17:27:45.738Z,100773.25
2023-02-03T17:31:47.345Z,100789.50
2023-02-03T17:36:10.134Z,100789.72
2023-02-03T17:57:06.050Z,100791.59
2023-02-03T18:01:17.585Z,100797.72
2023-02-03T18:05:19.524Z,100800.03
2023-02-03T18:09:21.103Z,100799.16
2023-02-03T18:13:25.780Z,100807.38
2023-02-03T18:17:27.344Z,100818.38
2023-02-03T18:21:29.526Z,100820.69
2023-02-03T18:25:31.240Z,100827.47
2023-02-03T18:29:32.908Z,100820.53
2023-02-03T18:33:35.737Z,100827.91
2023-02-03T18:37:37.316Z,100834.13
2023-02-03T18:41:39.323Z,100832.00
2023-02-03T18:45:40.977Z,100824.81
2023-02-03T18:49:43.155Z,100828.88
2023-02-03T18:53:47.253Z,100836.25
2023-02-03T18:57:49.126Z,100858.03
2023-02-03T19:01:51.124Z,100873.47
2023-02-03T19:05:53.499Z,100865.44
2023-02-03T19:09:55.116Z,100877.91
2023-02-03T19:13:56.757Z,100887.03
2023-02-03T19:17:58.441Z,100903.97
2023-02-03T19:22:00.109Z,100916.63
2023-02-03T19:26:03.040Z,100922.56
2023-02-03T19:30:04.673Z,100928.69
2023-02-03T19:34:06.608Z,100911.13
2023-02-03T19:38:08.940Z,100909.88
2023-02-03T19:42:11.851Z,100912.19
2023-02-03T19:46:13.760Z,100906.94
2023-02-03T19:50:16.649Z,100908.63
2023-02-03T19:54:18.187Z,100906.47
2023-02-03T19:58:20.069Z,100912.63
2023-02-03T20:02:21.710Z,100927.22
2023-02-03T20:06:23.513Z,100921.72
2023-02-03T20:10:26.536Z,100924.03
2023-02-03T20:14:28.333Z,100930.19
2023-02-03T20:18:29.953Z,100928.69
2023-02-03T20:22:31.681Z,100937.78
2023-02-03T20:26:34.326Z,100943.72
2023-02-03T20:30:36.801Z,100936.06
2023-02-03T20:34:38.615Z,100937.97
2023-02-03T20:38:40.543Z,100943.91
2023-02-03T20:42:42.285Z,100935.88
2023-02-03T20:46:43.921Z,100944.31
2023-02-03T20:50:49.563Z,100954.91
2023-02-03T20:54:51.353Z,100956.38
2023-02-03T20:58:52.968Z,100955.13
2023-02-03T21:03:13.824Z,100959.78
2023-02-03T21:07:18.218Z,100957.66
2023-02-03T21:11:21.778Z,100965.69
2023-02-03T21:15:27.877Z,100953.81
2023-02-03T21:19:33.593Z,100954.06
2023-02-03T21:23:40.125Z,100946.66
2023-02-03T21:27:47.206Z,100940.75
2023-02-03T21:31:49.180Z,100938.59
2023-02-03T21:35:50.803Z,100935.84
2023-02-03T21:39:52.812Z,100942.66
2023-02-03T21:43:57.080Z,100943.47
2023-02-03T21:47:59.161Z,100953.81
2023-02-03T21:52:00.786Z,100965.47
2023-02-03T21:56:17.122Z,100978.97
2023-02-03T22:00:48.004Z,100982.38
2023-02-03T22:04:49.820Z,100986.56
2023-02-03T22:08:56.694Z,100992.94
2023-02-03T22:12:58.315Z,101009.63
2023-02-03T22:16:59.896Z,101000.53
2023-02-03T22:21:03.278Z,101011.94
2023-02-03T22:25:05.120Z,101018.69
2023-02-03T22:29:06.804Z,101021.84
2023-02-03T22:33:08.539Z,101033.25
2023-02-03T22:37:10.092Z,101036.19
2023-02-03T22:41:13.000Z,101039.16
2023-02-03T22:45:14.528Z,101047.97
2023-02-03T22:49:16.158Z,101059.44
2023-02-03T22:53:17.796Z,101060.91
2023-02-03T22:57:19.372Z,101065.38
2023-02-03T23:01:20.910Z,101064.13
2023-02-03T23:05:22.483Z,101071.28
2023-02-03T23:09:24.011Z,101064.13
2023-02-03T23:13:25.793Z,101074.03
2023-02-03T23:17:27.542Z,101077.78
2023-02-03T23:21:29.172Z,101075.41
2023-02-03T23:25:30.717Z,101081.41
2023-02-03T23:29:33.178Z,101075.09
2023-02-03T23:33:34.733Z,101077.22
2023-02-03T23:37:36.324Z,101085.94
2023-02-03T23:41:37.880Z,101088.09
2023-02-03T23:45:40.218Z,101092.97
2023-02-03T23:49:41.844Z,101094.47
2023-02-03T23:53:43.453Z,101093.44
2023-02-03T23:57:45.682Z,101104.84
